.
WxDataArchive / Data Records for 2011-02-20
2011-02-19 February 2011 2011-02-21

Data Records for Sunday, 20 February 2011

Time	Temp	Chill	HIndex	Humid	Dewpt	 Wind 	HiWind	WindDir	Rain 	Barom 
-----	----	-----	------	-----	-----	------	------	-------	-----	----- 
00:00	24.1	24.1	24.1	79	18.5	0	0	---	0.00	30.367 
00:05	24.1	24.1	24.1	79	18.5	0	0	---	0.00	30.367 
00:10	24.1	24.1	24.1	80	18.8	0	0	---	0.00	30.367 
00:15	23.9	23.9	23.9	80	18.6	0	0	---	0.00	30.358 
00:20	23.9	23.9	23.9	80	18.6	0	0	---	0.00	30.358 
00:25	23.8	23.8	23.8	81	18.8	0	0	---	0.00	30.358 
00:30	23.8	23.8	23.8	81	18.8	0	0	---	0.00	30.358 
00:35	23.6	23.6	23.6	82	18.9	0	0	---	0.00	30.358 
00:40	24.1	24.1	24.1	82	19.4	0	0	---	0.00	30.358 
00:45	24.7	24.7	24.7	80	19.4	0	1	315	0.00	30.359 
00:50	25.4	25.4	25.4	77	19.2	0	1	315	0.00	30.359 
00:55	26.0	26.0	26.0	76	19.5	0	0	---	0.00	30.359 
01:00	26.4	26.4	26.4	74	19.3	0	1	315	0.00	30.367 
01:05	26.7	26.7	26.7	73	19.2	0	2	315	0.00	30.367 
01:10	27.0	27.0	27.0	72	19.2	0	2	315	0.00	30.367 
01:15	27.5	27.5	27.5	71	19.4	1	2	315	0.00	30.363 
01:20	27.6	27.6	27.6	71	19.4	0	1	315	0.00	30.363 
01:25	27.6	27.6	27.6	71	19.4	0	2	315	0.00	30.363 
01:30	27.8	27.8	27.8	71	19.6	1	3	90	0.00	30.360 
01:35	27.8	27.8	27.8	71	19.6	1	4	90	0.00	30.360 
01:40	27.8	27.8	27.8	71	19.6	1	3	90	0.00	30.360 
01:45	27.8	27.8	27.8	70	19.3	1	2	90	0.00	30.355 
01:50	27.8	27.8	27.8	70	19.3	1	2	90	0.00	30.355 
01:55	27.8	27.8	27.8	71	19.6	0	3	90	0.00	30.355 
02:00	27.8	27.8	27.8	71	19.6	0	2	90	0.00	30.358 
02:05	27.6	27.6	27.6	71	19.4	1	2	90	0.00	30.358 
02:10	27.6	27.6	27.6	72	19.8	1	3	90	0.00	30.358 
02:15	27.6	27.6	27.6	72	19.8	1	2	90	0.00	30.349 
02:20	27.5	27.5	27.5	72	19.7	1	3	90	0.00	30.349 
02:25	27.6	27.6	27.6	72	19.8	1	3	90	0.00	30.349 
02:30	27.6	27.6	27.6	72	19.8	1	4	90	0.00	30.345 
02:35	27.8	27.8	27.8	72	20.0	1	4	112	0.00	30.345 
02:40	27.8	27.8	27.8	72	20.0	1	4	112	0.00	30.345 
02:45	27.9	27.9	27.9	72	20.1	2	3	90	0.00	30.342 
02:50	27.9	27.9	27.9	72	20.1	2	5	68	0.00	30.342 
02:55	28.1	28.1	28.1	72	20.3	2	6	112	0.00	30.342 
03:00	28.1	28.1	28.1	71	19.9	2	4	90	0.00	30.335 
03:05	28.1	28.1	28.1	71	19.9	2	5	90	0.00	30.335 
03:10	28.1	28.1	28.1	71	19.9	2	5	90	0.00	30.335 
03:15	28.2	28.2	28.2	71	20.0	1	4	90	0.00	30.332 
03:20	28.2	28.2	28.2	71	20.0	2	4	90	0.00	30.332 
03:25	28.2	28.2	28.2	72	20.4	2	5	90	0.00	30.332 
03:30	28.4	28.4	28.4	72	20.5	3	6	90	0.00	30.329 
03:35	28.5	28.5	28.5	72	20.6	2	4	90	0.00	30.329 
03:40	28.7	28.7	28.7	73	21.2	2	5	90	0.00	30.329 
03:45	28.7	28.7	28.7	72	20.8	3	7	90	0.00	30.321 
03:50	28.7	28.7	28.7	72	20.8	2	6	68	0.00	30.321 
03:55	28.7	28.7	28.7	72	20.8	2	6	90	0.00	30.321 
04:00	28.7	28.7	28.7	73	21.2	2	5	90	0.00	30.314 
04:05	28.7	28.7	28.7	72	20.8	2	4	90	0.00	30.314 
04:10	28.7	28.7	28.7	73	21.2	3	7	90	0.00	30.314 
04:15	28.7	28.7	28.7	73	21.2	2	5	90	0.00	30.299 
04:20	28.7	28.7	28.7	73	21.2	2	4	90	0.00	30.299 
04:25	28.7	28.7	28.7	73	21.2	2	5	112	0.00	30.299 
04:30	28.8	28.8	28.8	73	21.3	2	5	90	0.00	30.304 
04:35	29.0	29.0	29.0	71	20.8	3	5	112	0.00	30.304 
04:40	29.0	29.0	29.0	71	20.8	3	7	112	0.00	30.304 
04:45	29.1	29.1	29.1	71	20.9	3	6	90	0.00	30.293 
04:50	29.1	29.1	29.1	71	20.9	3	6	90	0.00	30.293 
04:55	29.0	29.0	29.0	71	20.8	2	6	68	0.00	30.293 
05:00	29.0	29.0	29.0	72	21.1	2	5	90	0.00	30.283 
05:05	29.0	29.0	29.0	72	21.1	3	5	90	0.00	30.283 
05:10	28.8	28.8	28.8	72	20.9	2	5	90	0.00	30.283 
05:15	28.8	28.8	28.8	73	21.3	2	5	90	0.00	30.282 
05:20	28.8	28.8	28.8	72	20.9	3	6	90	0.00	30.282 
05:25	28.8	28.8	28.8	71	20.6	2	5	112	0.00	30.282 
05:30	29.0	29.0	29.0	72	21.1	1	4	90	0.00	30.286 
05:35	29.0	29.0	29.0	72	21.1	2	5	112	0.00	30.286 
05:40	29.0	29.0	29.0	72	21.1	3	5	90	0.00	30.286 
05:45	29.0	29.0	29.0	72	21.1	2	6	90	0.00	30.282 
05:50	29.0	29.0	29.0	72	21.1	2	6	112	0.00	30.282 
05:55	29.0	29.0	29.0	72	21.1	2	5	90	0.00	30.282 
06:00	29.0	29.0	29.0	73	21.4	3	6	112	0.00	30.274 
06:05	29.0	29.0	29.0	72	21.1	2	4	90	0.00	30.274 
06:10	29.0	29.0	29.0	73	21.4	1	5	90	0.00	30.274 
06:15	29.0	29.0	29.0	73	21.4	1	4	112	0.00	30.288 
06:20	29.0	29.0	29.0	73	21.4	2	3	90	0.00	30.288 
06:25	29.0	29.0	29.0	73	21.4	2	4	90	0.00	30.288 
06:30	29.0	29.0	29.0	73	21.4	1	3	112	0.00	30.286 
06:35	29.1	29.1	29.1	73	21.5	1	3	112	0.00	30.286 
06:40	29.1	29.1	29.1	73	21.5	1	4	68	0.00	30.286 
06:45	29.3	29.3	29.3	73	21.7	1	2	68	0.00	30.283 
06:50	29.3	29.3	29.3	73	21.7	1	3	68	0.00	30.283 
06:55	29.3	29.3	29.3	73	21.7	2	4	68	0.00	30.283 
07:00	29.3	29.3	29.3	73	21.7	1	4	68	0.00	30.276 
07:05	29.3	29.3	29.3	73	21.7	2	3	68	0.00	30.276 
07:10	29.4	29.4	29.4	74	22.2	1	4	68	0.00	30.276 
07:15	29.4	29.4	29.4	74	22.2	2	5	90	0.00	30.270 
07:20	29.4	29.4	29.4	74	22.2	2	4	90	0.00	30.270 
07:25	29.3	29.3	29.3	74	22.1	2	4	90	0.00	30.270 
07:30	29.3	29.3	29.3	74	22.1	2	5	90	0.00	30.261 
07:35	29.3	29.3	29.3	74	22.1	3	5	90	0.00	30.261 
07:40	29.4	29.4	29.4	74	22.2	2	7	90	0.00	30.261 
07:45	29.4	29.4	29.4	74	22.2	3	7	90	0.00	30.239 
07:50	29.4	29.4	29.4	74	22.2	3	5	90	0.00	30.239 
07:55	29.5	29.5	29.5	74	22.3	2	5	68	0.00	30.239 
08:00	29.5	29.5	29.5	74	22.3	2	4	90	0.00	30.242 
08:05	29.5	29.5	29.5	74	22.3	1	5	90	0.00	30.242 
08:10	29.7	29.7	29.7	74	22.4	3	5	90	0.00	30.242 
08:15	29.7	29.7	29.7	74	22.4	3	9	90	0.00	30.230 
08:20	29.8	29.8	29.8	74	22.5	3	7	112	0.00	30.230 
08:25	29.8	29.8	29.8	74	22.5	2	5	90	0.00	30.230 
08:30	30.0	30.0	30.0	74	22.7	2	3	90	0.00	30.235 
08:35	30.1	30.1	30.1	74	22.8	2	4	90	0.00	30.235 
08:40	30.1	30.1	30.1	74	22.8	1	4	90	0.00	30.235 
08:45	30.3	30.3	30.3	73	22.7	2	4	90	0.00	30.221 
08:50	30.4	30.4	30.4	73	22.8	1	4	112	0.00	30.221 
08:55	30.7	30.7	30.7	72	22.8	2	4	90	0.00	30.221 
09:00	30.9	30.9	30.9	71	22.6	3	7	112	0.00	30.214 
09:05	31.0	31.0	31.0	71	22.7	2	5	112	0.00	30.214 
09:10	31.0	31.0	31.0	71	22.7	1	3	112	0.00	30.214 
09:15	31.2	31.2	31.2	72	23.2	1	3	90	0.00	30.218 
09:20	31.3	31.3	31.3	72	23.3	1	4	112	0.00	30.218 
09:25	31.3	31.3	31.3	73	23.7	1	4	90	0.00	30.218 
09:30	31.5	31.5	31.5	73	23.9	1	3	248	0.00	30.213 
09:35	31.6	31.6	31.6	73	24.0	1	3	225	0.00	30.213 
09:40	31.8	31.8	31.8	72	23.8	1	3	112	0.00	30.213 
09:45	31.9	31.9	31.9	72	23.9	1	4	112	0.00	30.200 
09:50	32.1	32.1	32.1	72	24.1	1	3	90	0.00	30.200 
09:55	32.2	32.2	32.2	71	23.9	1	3	90	0.00	30.200 
10:00	32.4	32.4	32.4	69	23.4	2	5	90	0.00	30.187 
10:05	32.5	32.5	32.5	69	23.5	2	5	90	0.00	30.187 
10:10	32.8	32.8	32.8	68	23.4	2	5	90	0.00	30.187 
10:15	32.9	32.9	32.9	68	23.5	1	6	90	0.00	30.181 
10:20	32.9	32.9	32.9	68	23.5	1	3	90	0.00	30.181 
10:25	33.1	33.1	33.1	68	23.7	1	6	112	0.00	30.181 
10:30	33.1	33.1	33.1	69	24.1	1	5	90	0.00	30.171 
10:35	33.1	33.1	33.1	70	24.4	1	4	90	0.00	30.171 
10:40	32.9	32.9	32.9	72	24.9	1	3	135	0.00	30.171 
10:45	32.9	32.9	32.9	73	25.2	1	3	135	0.00	30.174 
10:50	32.8	32.8	32.8	75	25.8	0	2	135	0.00	30.174 
10:55	32.8	32.8	32.8	75	25.8	1	2	90	0.00	30.174 
11:00	32.7	32.7	32.7	77	26.3	1	3	112	0.00	30.167 
11:05	32.7	32.7	32.7	77	26.3	1	3	112	0.00	30.167 
11:10	32.7	32.7	32.7	77	26.3	1	4	112	0.00	30.167 
11:15	32.8	32.8	32.8	76	26.1	2	4	90	0.00	30.142 
11:20	32.8	32.8	32.8	76	26.1	1	4	135	0.00	30.142 
11:25	32.9	32.9	32.9	76	26.2	1	4	135	0.00	30.142 
11:30	32.9	32.9	32.9	76	26.2	1	3	90	0.00	30.133 
11:35	32.9	32.9	32.9	75	25.9	1	3	112	0.00	30.133 
11:40	33.1	33.1	33.1	75	26.1	1	3	112	0.00	30.133 
11:45	33.1	33.1	33.1	76	26.4	1	3	112	0.00	30.126 
11:50	33.1	33.1	33.1	76	26.4	0	2	112	0.00	30.126 
11:55	33.1	33.1	33.1	77	26.7	1	3	90	0.00	30.126 
12:00	32.9	32.9	32.9	78	26.8	1	3	90	0.00	30.124 
12:05	32.8	32.8	32.8	78	26.7	2	5	90	0.00	30.124 
12:10	32.8	32.8	32.8	78	26.7	2	5	90	0.00	30.124 
12:15	32.8	32.8	32.8	78	26.7	2	5	112	0.00	30.102 
12:20	32.9	32.9	32.9	78	26.8	3	6	90	0.00	30.102 
12:25	32.9	32.9	32.9	78	26.8	3	6	112	0.00	30.102 
12:30	32.8	29.0	32.8	78	26.7	4	7	112	0.00	30.076 
12:35	32.8	32.8	32.8	78	26.7	3	9	112	0.00	30.076 
12:40	32.8	32.8	32.8	78	26.7	3	9	90	0.00	30.076 
12:45	32.9	32.9	32.9	78	26.8	3	6	90	0.00	30.065 
12:50	32.9	32.9	32.9	78	26.8	3	7	90	0.00	30.065 
12:55	32.9	32.9	32.9	78	26.8	3	9	90	0.00	30.065 
13:00	32.9	32.9	32.9	78	26.8	2	8	90	0.00	30.048 
13:05	32.9	32.9	32.9	77	26.5	3	10	90	0.00	30.048 
13:10	32.9	32.9	32.9	78	26.8	2	5	90	0.00	30.048 
13:15	32.9	32.9	32.9	78	26.8	2	5	112	0.00	30.042 
13:20	32.9	32.9	32.9	79	27.1	2	4	90	0.00	30.042 
13:25	32.9	32.9	32.9	79	27.1	2	7	90	0.00	30.042 
13:30	32.9	32.9	32.9	79	27.1	3	7	45	0.00	30.014 
13:35	32.9	32.9	32.9	80	27.4	2	7	90	0.00	30.014 
13:40	32.9	32.9	32.9	79	27.1	2	4	112	0.00	30.014 
13:45	32.9	32.9	32.9	79	27.1	2	6	112	0.00	30.011 
13:50	32.9	32.9	32.9	79	27.1	2	5	90	0.00	30.011 
13:55	33.1	33.1	33.1	80	27.6	2	3	90	0.00	30.011 
14:00	33.1	33.1	33.1	81	27.9	1	4	90	0.00	30.002 
14:05	33.1	33.1	33.1	82	28.2	2	5	90	0.01	30.002 
14:10	32.9	32.9	32.9	84	28.6	2	5	112	0.00	30.002 
14:15	32.9	32.9	32.9	85	28.9	2	5	90	0.00	29.994 
14:20	32.9	29.1	32.9	85	28.9	4	7	90	0.00	29.994 
14:25	32.9	29.1	32.9	86	29.2	4	7	112	0.00	29.994 
14:30	32.9	29.1	32.9	86	29.2	4	7	90	0.00	29.964 
14:35	33.1	29.3	33.1	87	29.7	4	9	90	0.00	29.964 
14:40	33.1	29.3	33.1	87	29.7	4	10	90	0.00	29.964 
14:45	33.1	29.3	33.1	87	29.7	4	10	90	0.00	29.941 
14:50	32.9	28.1	32.9	87	29.5	5	12	112	0.00	29.941 
14:55	32.9	28.1	32.9	87	29.5	5	11	90	0.00	29.941 
15:00	32.8	29.0	32.8	87	29.4	4	12	90	0.00	29.916 
15:05	32.8	28.0	32.8	87	29.4	5	11	90	0.01	29.916 
15:10	32.7	27.1	32.7	88	29.5	6	12	90	0.00	29.916 
15:15	32.7	27.9	32.7	88	29.5	5	11	90	0.00	29.899 
15:20	32.7	28.9	32.7	88	29.5	4	7	112	0.00	29.899 
15:25	32.5	27.7	32.5	88	29.3	5	9	90	0.00	29.899 
15:30	32.5	28.7	32.5	88	29.3	4	9	90	0.00	29.891 
15:35	32.5	27.7	32.5	89	29.6	5	11	90	0.00	29.891 
15:40	32.5	26.8	32.5	89	29.6	6	12	112	0.00	29.891 
15:45	32.5	28.7	32.5	89	29.6	4	9	112	0.00	29.882 
15:50	32.5	28.7	32.5	90	29.9	4	10	112	0.00	29.882 
15:55	32.5	27.7	32.5	90	29.9	5	12	90	0.00	29.882 
16:00	32.5	28.7	32.5	90	29.9	4	11	90	0.00	29.868 
16:05	32.5	32.5	32.5	91	30.2	3	10	90	0.00	29.868 
16:10	32.5	28.7	32.5	91	30.2	4	10	112	0.00	29.868 
16:15	32.5	32.5	32.5	91	30.2	3	11	112	0.00	29.858 
16:20	32.5	27.7	32.5	91	30.2	5	14	112	0.00	29.858 
16:25	32.5	28.7	32.5	91	30.2	4	10	112	0.00	29.858 
16:30	32.5	28.7	32.5	91	30.2	4	11	112	0.00	29.850 
16:35	32.5	26.8	32.5	91	30.2	6	11	90	0.00	29.850 
16:40	32.5	27.7	32.5	91	30.2	5	11	112	0.00	29.850 
16:45	32.7	28.9	32.7	91	30.4	4	7	112	0.00	29.822 
16:50	32.8	28.0	32.8	91	30.5	5	12	90	0.00	29.822 
16:55	32.9	29.1	32.9	91	30.6	4	9	112	0.00	29.822 
17:00	32.9	28.1	32.9	90	30.3	5	13	90	0.01	29.817 
17:05	32.9	29.1	32.9	90	30.3	4	10	112	0.00	29.817 
17:10	32.9	29.1	32.9	89	30.0	4	9	90	0.00	29.817 
17:15	33.1	29.3	33.1	89	30.2	4	9	112	0.00	29.804 
17:20	33.1	29.3	33.1	88	29.9	4	10	112	0.00	29.804 
17:25	32.9	29.1	32.9	88	29.7	4	9	90	0.00	29.804 
17:30	33.1	29.3	33.1	88	29.9	4	8	90	0.00	29.791 
17:35	33.1	33.1	33.1	88	29.9	3	7	90	0.00	29.791 
17:40	33.1	29.3	33.1	88	29.9	4	7	90	0.00	29.791 
17:45	33.1	29.3	33.1	87	29.7	4	7	112	0.00	29.787 
17:50	33.1	29.3	33.1	86	29.4	4	11	112	0.00	29.787 
17:55	33.1	29.3	33.1	86	29.4	4	9	90	0.00	29.787 
18:00	33.1	33.1	33.1	86	29.4	3	9	112	0.00	29.790 
18:05	33.2	33.2	33.2	86	29.5	2	5	90	0.00	29.790 
18:10	33.1	29.3	33.1	86	29.4	4	9	90	0.00	29.790 
18:15	33.1	33.1	33.1	87	29.7	2	6	112	0.00	29.786 
18:20	32.9	32.9	32.9	87	29.5	2	6	112	0.00	29.786 
18:25	32.9	32.9	32.9	87	29.5	2	5	112	0.00	29.786 
18:30	32.9	32.9	32.9	87	29.5	2	6	112	0.00	29.779 
18:35	32.9	32.9	32.9	87	29.5	2	6	112	0.00	29.779 
18:40	32.9	32.9	32.9	87	29.5	3	6	112	0.00	29.779 
18:45	32.9	32.9	32.9	87	29.5	3	7	112	0.00	29.773 
18:50	33.1	33.1	33.1	87	29.7	2	5	68	0.00	29.773 
18:55	33.1	33.1	33.1	87	29.7	1	5	112	0.00	29.773 
19:00	33.1	33.1	33.1	87	29.7	2	4	112	0.00	29.784 
19:05	33.1	33.1	33.1	87	29.7	3	6	112	0.00	29.784 
19:10	32.9	32.9	32.9	88	29.7	2	4	90	0.00	29.784 
19:15	32.9	32.9	32.9	88	29.7	2	9	112	0.00	29.782 
19:20	32.8	32.8	32.8	88	29.6	2	7	90	0.00	29.782 
19:25	32.7	32.7	32.7	88	29.5	3	7	90	0.00	29.782 
19:30	32.7	32.7	32.7	88	29.5	2	8	90	0.00	29.785 
19:35	32.7	32.7	32.7	88	29.5	1	5	112	0.00	29.785 
19:40	32.7	32.7	32.7	88	29.5	2	10	90	0.00	29.785 
19:45	32.5	32.5	32.5	88	29.3	2	7	112	0.00	29.777 
19:50	32.7	32.7	32.7	88	29.5	1	4	45	0.00	29.777 
19:55	32.7	32.7	32.7	88	29.5	2	6	112	0.00	29.777 
20:00	32.5	32.5	32.5	88	29.3	3	10	112	0.00	29.762 
20:05	32.5	32.5	32.5	87	29.1	2	5	112	0.00	29.762 
20:10	32.5	32.5	32.5	87	29.1	1	4	112	0.00	29.762 
20:15	32.5	32.5	32.5	87	29.1	3	9	112	0.00	29.761 
20:20	32.7	27.9	32.7	86	29.0	5	12	112	0.00	29.761 
20:25	32.7	32.7	32.7	86	29.0	3	7	90	0.00	29.761 
20:30	32.7	32.7	32.7	86	29.0	3	5	90	0.00	29.757 
20:35	32.8	32.8	32.8	86	29.1	2	4	112	0.00	29.757 
20:40	32.8	32.8	32.8	86	29.1	1	6	112	0.00	29.757 
20:45	32.8	32.8	32.8	86	29.1	2	8	135	0.00	29.762 
20:50	32.8	32.8	32.8	86	29.1	2	5	112	0.00	29.762 
20:55	32.8	32.8	32.8	87	29.4	3	7	112	0.00	29.762 
21:00	32.7	32.7	32.7	87	29.3	3	9	112	0.00	29.752 
21:05	32.7	32.7	32.7	88	29.5	3	9	90	0.00	29.752 
21:10	32.5	28.7	32.5	88	29.3	4	12	112	0.00	29.752 
21:15	32.5	28.7	32.5	89	29.6	4	10	90	0.01	29.748 
21:20	32.4	28.5	32.4	90	29.8	4	11	112	0.00	29.748 
21:25	32.4	32.4	32.4	90	29.8	3	10	90	0.00	29.748 
21:30	32.2	28.3	32.2	90	29.6	4	11	90	0.00	29.740 
21:35	32.2	32.2	32.2	91	29.9	3	9	112	0.00	29.740 
21:40	32.2	27.3	32.2	91	29.9	5	12	90	0.00	29.740 
21:45	32.2	32.2	32.2	91	29.9	3	7	90	0.00	29.738 
21:50	32.2	32.2	32.2	92	30.1	3	12	90	0.00	29.738 
21:55	32.2	32.2	32.2	92	30.1	3	9	90	0.00	29.738 
22:00	32.2	32.2	32.2	92	30.1	3	8	90	0.00	29.739 
22:05	32.2	27.3	32.2	92	30.1	5	10	90	0.00	29.739 
22:10	32.2	32.2	32.2	92	30.1	3	10	90	0.00	29.739 
22:15	32.2	32.2	32.2	92	30.1	3	7	112	0.00	29.729 
22:20	32.2	28.3	32.2	92	30.1	4	10	112	0.00	29.729 
22:25	32.2	28.3	32.2	92	30.1	4	11	112	0.00	29.729 
22:30	32.1	28.2	32.1	92	30.0	4	10	90	0.01	29.722 
22:35	32.1	32.1	32.1	93	30.3	3	9	112	0.00	29.722 
22:40	32.1	32.1	32.1	93	30.3	1	6	90	0.00	29.722 
22:45	32.1	26.3	32.1	93	30.3	6	13	90	0.00	29.706 
22:50	32.1	28.2	32.1	93	30.3	4	11	90	0.02	29.706 
22:55	32.1	32.1	32.1	93	30.3	2	6	90	0.00	29.706 
23:00	32.1	32.1	32.1	93	30.3	2	6	90	0.01	29.721 
23:05	32.1	28.2	32.1	93	30.3	4	12	90	0.00	29.721 
23:10	32.1	27.2	32.1	93	30.3	5	12	90	0.00	29.721 
23:15	32.1	28.2	32.1	93	30.3	4	10	90	0.00	29.717 
23:20	32.1	27.2	32.1	93	30.3	5	9	112	0.01	29.717 
23:25	32.1	28.2	32.1	93	30.3	4	10	112	0.01	29.717 
23:30	32.1	32.1	32.1	94	30.6	3	7	90	0.00	29.709 
23:35	32.1	27.2	32.1	94	30.6	5	10	90	0.00	29.709 
23:40	32.1	28.2	32.1	94	30.6	4	8	90	0.00	29.709 
23:45	32.1	26.3	32.1	94	30.6	6	14	112	0.00	29.698 
23:50	32.1	27.2	32.1	94	30.6	5	12	90	0.00	29.698 
23:55	32.1	28.2	32.1	94	30.6	4	9	90	0.00	29.698 

CoCoRaHS
IN-AL-39
A2 Web Hosting
Creative Commons License
GoDaddy
search engine by freefind advanced

loaded 2018-11-15 16:08:46 • last modified 2010-11-18 10:43:29
Privacy PolicyDisclaimer
• wx.awcolley.com is powered by PmWiki v.2002016 •
• all content (unless otherwise noted) © 2018 A W Colley